sensor_id;sensor_type;location;lat;lon;timestamp;P1;durP1;ratioP1;P2;durP2;ratioP2
33268;SDS011;19640;50.944;5.260;2023-02-18T00:01:09;11.13;;;9.15;;
33268;SDS011;19640;50.944;5.260;2023-02-18T00:03:36;9.75;;;8.75;;
33268;SDS011;19640;50.944;5.260;2023-02-18T00:06:16;10.18;;;8.90;;
33268;SDS011;19640;50.944;5.260;2023-02-18T00:08:44;10.45;;;8.48;;
33268;SDS011;19640;50.944;5.260;2023-02-18T00:11:11;11.48;;;8.68;;
33268;SDS011;19640;50.944;5.260;2023-02-18T00:13:37;10.02;;;8.68;;
33268;SDS011;19640;50.944;5.260;2023-02-18T00:16:04;9.98;;;9.00;;
33268;SDS011;19640;50.944;5.260;2023-02-18T00:18:31;10.05;;;9.05;;
33268;SDS011;19640;50.944;5.260;2023-02-18T00:20:57;12.30;;;9.40;;
33268;SDS011;19640;50.944;5.260;2023-02-18T00:23:22;13.13;;;9.82;;
33268;SDS011;19640;50.944;5.260;2023-02-18T00:25:49;11.50;;;9.07;;
33268;SDS011;19640;50.944;5.260;2023-02-18T00:28:22;10.10;;;9.00;;
33268;SDS011;19640;50.944;5.260;2023-02-18T00:30:48;12.35;;;9.35;;
33268;SDS011;19640;50.944;5.260;2023-02-18T00:33:13;10.85;;;9.43;;
33268;SDS011;19640;50.944;5.260;2023-02-18T00:35:39;14.07;;;10.10;;
33268;SDS011;19640;50.944;5.260;2023-02-18T00:38:05;11.82;;;9.45;;
33268;SDS011;19640;50.944;5.260;2023-02-18T00:40:30;11.18;;;9.95;;
33268;SDS011;19640;50.944;5.260;2023-02-18T00:42:56;14.55;;;10.02;;
33268;SDS011;19640;50.944;5.260;2023-02-18T00:45:21;14.80;;;11.13;;
33268;SDS011;19640;50.944;5.260;2023-02-18T00:47:47;15.38;;;11.23;;
33268;SDS011;19640;50.944;5.260;2023-02-18T00:50:13;13.82;;;10.50;;
33268;SDS011;19640;50.944;5.260;2023-02-18T00:52:38;13.13;;;10.65;;
33268;SDS011;19640;50.944;5.260;2023-02-18T00:55:04;12.82;;;10.50;;
33268;SDS011;19640;50.944;5.260;2023-02-18T00:57:30;13.07;;;11.02;;
33268;SDS011;19640;50.944;5.260;2023-02-18T00:59:56;14.25;;;10.55;;
33268;SDS011;19640;50.944;5.260;2023-02-18T01:02:21;14.48;;;10.20;;
33268;SDS011;19640;50.944;5.260;2023-02-18T01:04:47;18.27;;;9.48;;
33268;SDS011;19640;50.944;5.260;2023-02-18T01:07:12;10.90;;;9.73;;
33268;SDS011;19640;50.944;5.260;2023-02-18T01:09:38;12.82;;;9.88;;
33268;SDS011;19640;50.944;5.260;2023-02-18T01:12:04;11.20;;;9.07;;
33268;SDS011;19640;50.944;5.260;2023-02-18T01:14:29;9.82;;;8.60;;
33268;SDS011;19640;50.944;5.260;2023-02-18T01:16:55;11.45;;;8.85;;
33268;SDS011;19640;50.944;5.260;2023-02-18T01:19:21;11.13;;;8.52;;
33268;SDS011;19640;50.944;5.260;2023-02-18T01:21:46;14.73;;;8.10;;
33268;SDS011;19640;50.944;5.260;2023-02-18T01:24:12;9.82;;;7.90;;
33268;SDS011;19640;50.944;5.260;2023-02-18T01:26:38;9.55;;;8.25;;
33268;SDS011;19640;50.944;5.260;2023-02-18T01:29:03;9.02;;;7.22;;
33268;SDS011;19640;50.944;5.260;2023-02-18T01:31:29;9.57;;;7.35;;
33268;SDS011;19640;50.944;5.260;2023-02-18T01:33:54;8.43;;;6.53;;
33268;SDS011;19640;50.944;5.260;2023-02-18T01:36:20;7.55;;;6.32;;
33268;SDS011;19640;50.944;5.260;2023-02-18T01:38:46;7.43;;;6.43;;
33268;SDS011;19640;50.944;5.260;2023-02-18T01:41:11;8.80;;;6.20;;
33268;SDS011;19640;50.944;5.260;2023-02-18T01:43:37;6.50;;;5.80;;
33268;SDS011;19640;50.944;5.260;2023-02-18T01:49:04;8.52;;;6.03;;
33268;SDS011;19640;50.944;5.260;2023-02-18T01:51:30;7.25;;;5.40;;
33268;SDS011;19640;50.944;5.260;2023-02-18T01:54:13;7.63;;;5.25;;
33268;SDS011;19640;50.944;5.260;2023-02-18T01:57:03;7.22;;;6.00;;
33268;SDS011;19640;50.944;5.260;2023-02-18T01:59:40;7.43;;;5.47;;
33268;SDS011;19640;50.944;5.260;2023-02-18T02:02:11;7.55;;;5.07;;
33268;SDS011;19640;50.944;5.260;2023-02-18T02:04:39;5.72;;;4.57;;
33268;SDS011;19640;50.944;5.260;2023-02-18T02:07:05;6.13;;;4.93;;
33268;SDS011;19640;50.944;5.260;2023-02-18T02:09:31;6.95;;;5.25;;
33268;SDS011;19640;50.944;5.260;2023-02-18T02:28:39;11.20;;;5.63;;
33268;SDS011;19640;50.944;5.260;2023-02-18T02:39:40;8.38;;;4.97;;
33268;SDS011;19640;50.944;5.260;2023-02-18T02:45:09;6.90;;;4.30;;
33268;SDS011;19640;50.944;5.260;2023-02-18T02:50:36;6.22;;;3.65;;
33268;SDS011;19640;50.944;5.260;2023-02-18T02:53:13;4.95;;;2.88;;
33268;SDS011;19640;50.944;5.260;2023-02-18T02:55:45;4.35;;;3.10;;
33268;SDS011;19640;50.944;5.260;2023-02-18T02:58:15;4.32;;;2.90;;
33268;SDS011;19640;50.944;5.260;2023-02-18T03:17:34;4.93;;;2.97;;
33268;SDS011;19640;50.944;5.260;2023-02-18T03:20:09;5.60;;;3.55;;
33268;SDS011;19640;50.944;5.260;2023-02-18T03:22:47;7.25;;;2.92;;
33268;SDS011;19640;50.944;5.260;2023-02-18T03:25:16;5.57;;;3.20;;
33268;SDS011;19640;50.944;5.260;2023-02-18T03:27:44;6.05;;;3.80;;
33268;SDS011;19640;50.944;5.260;2023-02-18T03:30:22;5.90;;;3.13;;
33268;SDS011;19640;50.944;5.260;2023-02-18T03:32:52;6.53;;;3.88;;
33268;SDS011;19640;50.944;5.260;2023-02-18T03:35:22;6.90;;;4.22;;
33268;SDS011;19640;50.944;5.260;2023-02-18T03:37:52;5.75;;;3.40;;
33268;SDS011;19640;50.944;5.260;2023-02-18T03:40:25;6.50;;;3.63;;
33268;SDS011;19640;50.944;5.260;2023-02-18T03:42:52;7.63;;;3.65;;
33268;SDS011;19640;50.944;5.260;2023-02-18T03:45:18;6.00;;;3.50;;
33268;SDS011;19640;50.944;5.260;2023-02-18T03:47:44;4.40;;;2.83;;
33268;SDS011;19640;50.944;5.260;2023-02-18T03:50:10;5.28;;;3.05;;
33268;SDS011;19640;50.944;5.260;2023-02-18T03:52:35;5.20;;;2.83;;
33268;SDS011;19640;50.944;5.260;2023-02-18T03:55:02;5.38;;;2.90;;
33268;SDS011;19640;50.944;5.260;2023-02-18T03:57:29;3.72;;;2.75;;
33268;SDS011;19640;50.944;5.260;2023-02-18T03:59:54;3.33;;;2.30;;
33268;SDS011;19640;50.944;5.260;2023-02-18T04:02:20;3.15;;;2.22;;
33268;SDS011;19640;50.944;5.260;2023-02-18T04:04:46;5.57;;;2.50;;
33268;SDS011;19640;50.944;5.260;2023-02-18T04:07:11;3.42;;;2.63;;
33268;SDS011;19640;50.944;5.260;2023-02-18T04:09:37;3.63;;;2.63;;
33268;SDS011;19640;50.944;5.260;2023-02-18T04:12:03;5.18;;;3.00;;
33268;SDS011;19640;50.944;5.260;2023-02-18T04:14:29;5.50;;;2.88;;
33268;SDS011;19640;50.944;5.260;2023-02-18T04:16:54;3.35;;;2.40;;
33268;SDS011;19640;50.944;5.260;2023-02-18T04:19:20;3.20;;;2.50;;
33268;SDS011;19640;50.944;5.260;2023-02-18T04:21:45;3.75;;;2.65;;
33268;SDS011;19640;50.944;5.260;2023-02-18T04:24:11;3.53;;;2.72;;
33268;SDS011;19640;50.944;5.260;2023-02-18T04:26:37;4.47;;;2.88;;
33268;SDS011;19640;50.944;5.260;2023-02-18T04:29:02;4.10;;;2.92;;
33268;SDS011;19640;50.944;5.260;2023-02-18T04:31:28;4.43;;;2.70;;
33268;SDS011;19640;50.944;5.260;2023-02-18T04:33:55;5.57;;;3.38;;
33268;SDS011;19640;50.944;5.260;2023-02-18T04:36:20;5.53;;;3.28;;
33268;SDS011;19640;50.944;5.260;2023-02-18T04:38:46;9.02;;;3.78;;
33268;SDS011;19640;50.944;5.260;2023-02-18T04:41:12;6.78;;;4.40;;
33268;SDS011;19640;50.944;5.260;2023-02-18T04:43:37;6.43;;;4.20;;
33268;SDS011;19640;50.944;5.260;2023-02-18T04:46:03;6.32;;;4.50;;
33268;SDS011;19640;50.944;5.260;2023-02-18T04:48:29;5.65;;;3.47;;
33268;SDS011;19640;50.944;5.260;2023-02-18T04:50:55;6.03;;;3.72;;
33268;SDS011;19640;50.944;5.260;2023-02-18T04:53:20;4.05;;;3.08;;
33268;SDS011;19640;50.944;5.260;2023-02-18T04:55:49;5.40;;;4.20;;
33268;SDS011;19640;50.944;5.260;2023-02-18T04:58:16;4.53;;;3.10;;
33268;SDS011;19640;50.944;5.260;2023-02-18T05:00:42;3.40;;;2.63;;
33268;SDS011;19640;50.944;5.260;2023-02-18T05:03:07;4.25;;;2.95;;
33268;SDS011;19640;50.944;5.260;2023-02-18T05:05:33;3.97;;;2.75;;
33268;SDS011;19640;50.944;5.260;2023-02-18T05:07:59;4.30;;;3.05;;
33268;SDS011;19640;50.944;5.260;2023-02-18T05:10:25;3.58;;;3.00;;
33268;SDS011;19640;50.944;5.260;2023-02-18T05:12:51;3.50;;;2.72;;
33268;SDS011;19640;50.944;5.260;2023-02-18T05:15:17;5.07;;;2.50;;
33268;SDS011;19640;50.944;5.260;2023-02-18T05:17:42;3.50;;;2.80;;
33268;SDS011;19640;50.944;5.260;2023-02-18T05:20:08;3.03;;;2.42;;
33268;SDS011;19640;50.944;5.260;2023-02-18T05:22:34;3.45;;;2.22;;
33268;SDS011;19640;50.944;5.260;2023-02-18T05:25:00;3.47;;;2.17;;
33268;SDS011;19640;50.944;5.260;2023-02-18T05:27:25;2.92;;;2.00;;
33268;SDS011;19640;50.944;5.260;2023-02-18T05:29:51;2.40;;;1.77;;
33268;SDS011;19640;50.944;5.260;2023-02-18T05:32:17;4.85;;;1.90;;
33268;SDS011;19640;50.944;5.260;2023-02-18T05:34:42;1.85;;;1.63;;
33268;SDS011;19640;50.944;5.260;2023-02-18T05:37:08;2.10;;;1.85;;
33268;SDS011;19640;50.944;5.260;2023-02-18T05:39:33;3.60;;;1.65;;
33268;SDS011;19640;50.944;5.260;2023-02-18T05:41:59;2.22;;;1.55;;
33268;SDS011;19640;50.944;5.260;2023-02-18T05:44:25;1.52;;;1.23;;
33268;SDS011;19640;50.944;5.260;2023-02-18T05:46:58;2.65;;;1.83;;
33268;SDS011;19640;50.944;5.260;2023-02-18T05:49:25;2.63;;;1.92;;
33268;SDS011;19640;50.944;5.260;2023-02-18T05:51:51;6.05;;;3.33;;
33268;SDS011;19640;50.944;5.260;2023-02-18T05:54:17;2.63;;;2.00;;
33268;SDS011;19640;50.944;5.260;2023-02-18T05:56:42;2.28;;;1.80;;
33268;SDS011;19640;50.944;5.260;2023-02-18T05:59:08;5.72;;;2.22;;
33268;SDS011;19640;50.944;5.260;2023-02-18T06:01:35;3.03;;;1.88;;
33268;SDS011;19640;50.944;5.260;2023-02-18T06:04:00;2.03;;;1.70;;
33268;SDS011;19640;50.944;5.260;2023-02-18T06:06:26;1.63;;;1.48;;
33268;SDS011;19640;50.944;5.260;2023-02-18T06:08:52;2.85;;;1.50;;
33268;SDS011;19640;50.944;5.260;2023-02-18T06:11:17;2.35;;;1.95;;
33268;SDS011;19640;50.944;5.260;2023-02-18T06:13:43;2.17;;;1.30;;
33268;SDS011;19640;50.944;5.260;2023-02-18T06:16:08;2.00;;;1.70;;
33268;SDS011;19640;50.944;5.260;2023-02-18T06:18:34;3.17;;;1.60;;
33268;SDS011;19640;50.944;5.260;2023-02-18T06:21:00;2.53;;;1.52;;
33268;SDS011;19640;50.944;5.260;2023-02-18T06:23:25;2.40;;;1.88;;
33268;SDS011;19640;50.944;5.260;2023-02-18T06:25:51;2.05;;;1.75;;
33268;SDS011;19640;50.944;5.260;2023-02-18T06:28:17;1.80;;;1.48;;
33268;SDS011;19640;50.944;5.260;2023-02-18T06:30:43;1.85;;;1.33;;
33268;SDS011;19640;50.944;5.260;2023-02-18T06:33:09;2.15;;;1.42;;
33268;SDS011;19640;50.944;5.260;2023-02-18T06:35:35;1.90;;;1.15;;
33268;SDS011;19640;50.944;5.260;2023-02-18T06:38:01;1.85;;;1.30;;
33268;SDS011;19640;50.944;5.260;2023-02-18T06:40:26;1.88;;;1.08;;
33268;SDS011;19640;50.944;5.260;2023-02-18T06:42:52;3.38;;;1.25;;
33268;SDS011;19640;50.944;5.260;2023-02-18T06:45:18;1.88;;;1.20;;
33268;SDS011;19640;50.944;5.260;2023-02-18T06:47:43;1.85;;;1.10;;
33268;SDS011;19640;50.944;5.260;2023-02-18T06:50:09;2.53;;;1.30;;
33268;SDS011;19640;50.944;5.260;2023-02-18T06:52:35;3.92;;;1.40;;
33268;SDS011;19640;50.944;5.260;2023-02-18T06:55:02;4.40;;;1.83;;
33268;SDS011;19640;50.944;5.260;2023-02-18T06:57:29;4.88;;;2.72;;
33268;SDS011;19640;50.944;5.260;2023-02-18T06:59:55;2.45;;;1.13;;
33268;SDS011;19640;50.944;5.260;2023-02-18T07:02:20;2.95;;;1.67;;
33268;SDS011;19640;50.944;5.260;2023-02-18T07:04:46;8.57;;;2.00;;
33268;SDS011;19640;50.944;5.260;2023-02-18T07:07:11;8.63;;;1.90;;
33268;SDS011;19640;50.944;5.260;2023-02-18T07:09:37;5.93;;;2.55;;
33268;SDS011;19640;50.944;5.260;2023-02-18T07:12:03;6.07;;;2.20;;
33268;SDS011;19640;50.944;5.260;2023-02-18T07:14:29;4.85;;;1.75;;
33268;SDS011;19640;50.944;5.260;2023-02-18T07:16:54;7.38;;;1.58;;
33268;SDS011;19640;50.944;5.260;2023-02-18T07:19:20;8.73;;;1.90;;
33268;SDS011;19640;50.944;5.260;2023-02-18T07:21:45;7.43;;;1.52;;
33268;SDS011;19640;50.944;5.260;2023-02-18T07:24:11;9.88;;;1.75;;
33268;SDS011;19640;50.944;5.260;2023-02-18T07:26:37;6.07;;;1.67;;
33268;SDS011;19640;50.944;5.260;2023-02-18T07:29:02;8.82;;;1.85;;
33268;SDS011;19640;50.944;5.260;2023-02-18T07:31:28;9.10;;;1.45;;
33268;SDS011;19640;50.944;5.260;2023-02-18T07:33:54;6.85;;;2.28;;
33268;SDS011;19640;50.944;5.260;2023-02-18T07:36:19;8.52;;;2.13;;
33268;SDS011;19640;50.944;5.260;2023-02-18T07:38:45;8.55;;;2.38;;
33268;SDS011;19640;50.944;5.260;2023-02-18T07:41:18;7.95;;;1.65;;
33268;SDS011;19640;50.944;5.260;2023-02-18T07:43:45;6.00;;;1.75;;
33268;SDS011;19640;50.944;5.260;2023-02-18T07:46:11;6.43;;;1.55;;
33268;SDS011;19640;50.944;5.260;2023-02-18T07:48:37;11.65;;;1.63;;
33268;SDS011;19640;50.944;5.260;2023-02-18T07:51:06;9.18;;;2.75;;
33268;SDS011;19640;50.944;5.260;2023-02-18T07:53:34;7.28;;;2.15;;
33268;SDS011;19640;50.944;5.260;2023-02-18T07:56:01;8.90;;;2.10;;
33268;SDS011;19640;50.944;5.260;2023-02-18T07:58:31;8.98;;;1.80;;
33268;SDS011;19640;50.944;5.260;2023-02-18T08:00:58;8.13;;;2.05;;
33268;SDS011;19640;50.944;5.260;2023-02-18T08:03:25;4.18;;;1.77;;
33268;SDS011;19640;50.944;5.260;2023-02-18T08:05:53;9.07;;;2.05;;
33268;SDS011;19640;50.944;5.260;2023-02-18T08:08:21;9.77;;;2.42;;
33268;SDS011;19640;50.944;5.260;2023-02-18T08:10:48;5.32;;;1.38;;
33268;SDS011;19640;50.944;5.260;2023-02-18T08:13:15;7.40;;;1.65;;
33268;SDS011;19640;50.944;5.260;2023-02-18T08:15:41;9.15;;;2.08;;
33268;SDS011;19640;50.944;5.260;2023-02-18T08:18:08;15.52;;;2.15;;
33268;SDS011;19640;50.944;5.260;2023-02-18T08:20:39;8.55;;;1.83;;
33268;SDS011;19640;50.944;5.260;2023-02-18T08:23:04;6.80;;;2.13;;
33268;SDS011;19640;50.944;5.260;2023-02-18T08:25:30;9.23;;;1.70;;
33268;SDS011;19640;50.944;5.260;2023-02-18T08:27:56;10.05;;;1.90;;
33268;SDS011;19640;50.944;5.260;2023-02-18T08:30:22;9.20;;;2.35;;
33268;SDS011;19640;50.944;5.260;2023-02-18T08:32:48;10.52;;;1.77;;
33268;SDS011;19640;50.944;5.260;2023-02-18T08:35:13;5.30;;;1.90;;
33268;SDS011;19640;50.944;5.260;2023-02-18T08:37:39;8.85;;;1.90;;
33268;SDS011;19640;50.944;5.260;2023-02-18T08:40:05;9.52;;;1.80;;
33268;SDS011;19640;50.944;5.260;2023-02-18T08:42:31;5.57;;;1.80;;
33268;SDS011;19640;50.944;5.260;2023-02-18T08:44:57;8.23;;;2.28;;
33268;SDS011;19640;50.944;5.260;2023-02-18T08:47:22;13.40;;;2.85;;
33268;SDS011;19640;50.944;5.260;2023-02-18T08:49:48;5.45;;;1.38;;
33268;SDS011;19640;50.944;5.260;2023-02-18T08:52:14;8.38;;;1.92;;
33268;SDS011;19640;50.944;5.260;2023-02-18T08:54:39;8.13;;;1.85;;
33268;SDS011;19640;50.944;5.260;2023-02-18T08:57:05;11.30;;;2.00;;
33268;SDS011;19640;50.944;5.260;2023-02-18T08:59:31;12.68;;;1.75;;
33268;SDS011;19640;50.944;5.260;2023-02-18T09:01:56;5.55;;;1.40;;
33268;SDS011;19640;50.944;5.260;2023-02-18T09:04:22;6.95;;;1.73;;
33268;SDS011;19640;50.944;5.260;2023-02-18T09:06:48;6.70;;;1.52;;
33268;SDS011;19640;50.944;5.260;2023-02-18T09:09:14;6.72;;;1.92;;
33268;SDS011;19640;50.944;5.260;2023-02-18T09:11:41;11.30;;;1.80;;
33268;SDS011;19640;50.944;5.260;2023-02-18T09:14:07;11.43;;;1.88;;
33268;SDS011;19640;50.944;5.260;2023-02-18T09:16:33;5.53;;;1.40;;
33268;SDS011;19640;50.944;5.260;2023-02-18T09:18:58;8.45;;;2.10;;
33268;SDS011;19640;50.944;5.260;2023-02-18T09:21:24;7.45;;;1.20;;
33268;SDS011;19640;50.944;5.260;2023-02-18T09:23:50;9.35;;;1.50;;
33268;SDS011;19640;50.944;5.260;2023-02-18T09:26:17;22.88;;;3.28;;
33268;SDS011;19640;50.944;5.260;2023-02-18T09:28:47;10.43;;;1.75;;
33268;SDS011;19640;50.944;5.260;2023-02-18T09:31:14;5.07;;;1.55;;
33268;SDS011;19640;50.944;5.260;2023-02-18T09:33:46;8.52;;;1.35;;
33268;SDS011;19640;50.944;5.260;2023-02-18T09:36:15;9.15;;;1.92;;
33268;SDS011;19640;50.944;5.260;2023-02-18T09:38:41;5.13;;;1.48;;
33268;SDS011;19640;50.944;5.260;2023-02-18T09:41:30;7.30;;;1.73;;
33268;SDS011;19640;50.944;5.260;2023-02-18T09:47:30;7.50;;;1.70;;
33268;SDS011;19640;50.944;5.260;2023-02-18T09:49:37;6.78;;;1.35;;
33268;SDS011;19640;50.944;5.260;2023-02-18T09:52:50;5.10;;;1.75;;
33268;SDS011;19640;50.944;5.260;2023-02-18T09:54:58;3.95;;;1.30;;
33268;SDS011;19640;50.944;5.260;2023-02-18T10:00:22;4.82;;;1.08;;
33268;SDS011;19640;50.944;5.260;2023-02-18T10:05:30;4.00;;;1.52;;
33268;SDS011;19640;50.944;5.260;2023-02-18T10:08:02;4.00;;;1.20;;
33268;SDS011;19640;50.944;5.260;2023-02-18T10:10:33;7.07;;;1.20;;
33268;SDS011;19640;50.944;5.260;2023-02-18T10:13:09;3.22;;;0.90;;
33268;SDS011;19640;50.944;5.260;2023-02-18T10:15:41;5.47;;;1.10;;
33268;SDS011;19640;50.944;5.260;2023-02-18T10:18:15;6.78;;;1.00;;
33268;SDS011;19640;50.944;5.260;2023-02-18T10:21:15;3.97;;;1.02;;
33268;SDS011;19640;50.944;5.260;2023-02-18T10:26:28;3.80;;;0.93;;
33268;SDS011;19640;50.944;5.260;2023-02-18T10:28:57;4.03;;;1.02;;
33268;SDS011;19640;50.944;5.260;2023-02-18T10:31:29;5.07;;;1.15;;
33268;SDS011;19640;50.944;5.260;2023-02-18T10:36:46;4.63;;;1.00;;
33268;SDS011;19640;50.944;5.260;2023-02-18T10:50:10;6.50;;;1.25;;
33268;SDS011;19640;50.944;5.260;2023-02-18T10:52:44;4.65;;;1.50;;
33268;SDS011;19640;50.944;5.260;2023-02-18T10:55:14;5.30;;;1.75;;
33268;SDS011;19640;50.944;5.260;2023-02-18T10:57:53;7.40;;;1.50;;
33268;SDS011;19640;50.944;5.260;2023-02-18T11:00:23;4.68;;;1.60;;
33268;SDS011;19640;50.944;5.260;2023-02-18T11:03:36;6.53;;;1.52;;
33268;SDS011;19640;50.944;5.260;2023-02-18T11:05:49;4.05;;;1.92;;
33268;SDS011;19640;50.944;5.260;2023-02-18T11:08:22;7.50;;;1.60;;
33268;SDS011;19640;50.944;5.260;2023-02-18T11:10:51;3.88;;;1.75;;
33268;SDS011;19640;50.944;5.260;2023-02-18T11:13:27;3.75;;;1.40;;
33268;SDS011;19640;50.944;5.260;2023-02-18T11:18:37;4.47;;;1.67;;
33268;SDS011;19640;50.944;5.260;2023-02-18T11:24:07;6.22;;;2.10;;
33268;SDS011;19640;50.944;5.260;2023-02-18T11:26:39;3.45;;;1.65;;
33268;SDS011;19640;50.944;5.260;2023-02-18T11:29:07;7.32;;;1.77;;
33268;SDS011;19640;50.944;5.260;2023-02-18T11:31:41;6.13;;;1.63;;
33268;SDS011;19640;50.944;5.260;2023-02-18T11:34:13;5.13;;;2.00;;
33268;SDS011;19640;50.944;5.260;2023-02-18T11:36:44;3.45;;;1.70;;
33268;SDS011;19640;50.944;5.260;2023-02-18T11:39:24;6.22;;;2.10;;
33268;SDS011;19640;50.944;5.260;2023-02-18T11:47:05;4.68;;;1.98;;
33268;SDS011;19640;50.944;5.260;2023-02-18T11:49:58;6.63;;;1.98;;
33268;SDS011;19640;50.944;5.260;2023-02-18T11:52:48;4.07;;;1.85;;
33268;SDS011;19640;50.944;5.260;2023-02-18T11:55:22;4.95;;;1.88;;
33268;SDS011;19640;50.944;5.260;2023-02-18T12:02:51;5.10;;;2.00;;
33268;SDS011;19640;50.944;5.260;2023-02-18T12:05:26;4.90;;;2.30;;
33268;SDS011;19640;50.944;5.260;2023-02-18T12:07:57;17.95;;;2.35;;
33268;SDS011;19640;50.944;5.260;2023-02-18T12:10:33;2.88;;;1.85;;
33268;SDS011;19640;50.944;5.260;2023-02-18T12:16:21;5.43;;;1.98;;
33268;SDS011;19640;50.944;5.260;2023-02-18T12:21:10;8.15;;;3.17;;
33268;SDS011;19640;50.944;5.260;2023-02-18T12:29:30;9.77;;;2.85;;
33268;SDS011;19640;50.944;5.260;2023-02-18T12:43:51;9.63;;;2.53;;
33268;SDS011;19640;50.944;5.260;2023-02-18T13:07:17;10.30;;;3.42;;
33268;SDS011;19640;50.944;5.260;2023-02-18T13:10:07;8.45;;;2.05;;
33268;SDS011;19640;50.944;5.260;2023-02-18T13:15:21;7.07;;;2.40;;
33268;SDS011;19640;50.944;5.260;2023-02-18T13:17:53;6.15;;;3.15;;
33268;SDS011;19640;50.944;5.260;2023-02-18T13:21:04;8.93;;;3.55;;
33268;SDS011;19640;50.944;5.260;2023-02-18T13:23:17;6.72;;;3.25;;
33268;SDS011;19640;50.944;5.260;2023-02-18T13:25:50;4.80;;;2.50;;
33268;SDS011;19640;50.944;5.260;2023-02-18T13:28:24;7.97;;;2.40;;
33268;SDS011;19640;50.944;5.260;2023-02-18T13:36:51;10.00;;;2.40;;
33268;SDS011;19640;50.944;5.260;2023-02-18T13:39:34;6.47;;;2.70;;
33268;SDS011;19640;50.944;5.260;2023-02-18T13:47:15;9.23;;;2.95;;
33268;SDS011;19640;50.944;5.260;2023-02-18T13:50:13;9.32;;;2.47;;
33268;SDS011;19640;50.944;5.260;2023-02-18T13:53:35;11.40;;;2.65;;
33268;SDS011;19640;50.944;5.260;2023-02-18T14:01:35;7.32;;;2.83;;
33268;SDS011;19640;50.944;5.260;2023-02-18T14:07:16;5.88;;;2.33;;
33268;SDS011;19640;50.944;5.260;2023-02-18T14:10:00;16.08;;;3.10;;
33268;SDS011;19640;50.944;5.260;2023-02-18T14:26:27;7.73;;;2.50;;
33268;SDS011;19640;50.944;5.260;2023-02-18T14:33:35;5.95;;;2.55;;
33268;SDS011;19640;50.944;5.260;2023-02-18T14:39:10;12.77;;;3.53;;
33268;SDS011;19640;50.944;5.260;2023-02-18T14:42:14;11.20;;;2.85;;
33268;SDS011;19640;50.944;5.260;2023-02-18T14:48:05;9.38;;;3.55;;
33268;SDS011;19640;50.944;5.260;2023-02-18T14:50:19;11.15;;;2.72;;
33268;SDS011;19640;50.944;5.260;2023-02-18T14:52:58;4.82;;;2.25;;
33268;SDS011;19640;50.944;5.260;2023-02-18T14:55:47;5.10;;;2.90;;
33268;SDS011;19640;50.944;5.260;2023-02-18T15:00:46;10.45;;;2.67;;
33268;SDS011;19640;50.944;5.260;2023-02-18T15:03:16;9.18;;;3.08;;
33268;SDS011;19640;50.944;5.260;2023-02-18T15:05:46;8.93;;;2.67;;
33268;SDS011;19640;50.944;5.260;2023-02-18T15:08:16;5.40;;;2.35;;
33268;SDS011;19640;50.944;5.260;2023-02-18T15:13:15;7.65;;;2.85;;
33268;SDS011;19640;50.944;5.260;2023-02-18T15:15:44;12.52;;;3.15;;
33268;SDS011;19640;50.944;5.260;2023-02-18T15:18:19;7.38;;;2.28;;
33268;SDS011;19640;50.944;5.260;2023-02-18T15:20:55;9.65;;;2.47;;
33268;SDS011;19640;50.944;5.260;2023-02-18T15:23:21;4.30;;;2.15;;
33268;SDS011;19640;50.944;5.260;2023-02-18T15:25:51;6.00;;;3.25;;
33268;SDS011;19640;50.944;5.260;2023-02-18T15:28:21;8.35;;;2.90;;
33268;SDS011;19640;50.944;5.260;2023-02-18T15:30:52;12.93;;;2.83;;
33268;SDS011;19640;50.944;5.260;2023-02-18T15:33:21;9.48;;;3.25;;
33268;SDS011;19640;50.944;5.260;2023-02-18T15:35:47;4.85;;;2.95;;
33268;SDS011;19640;50.944;5.260;2023-02-18T15:38:17;5.43;;;2.80;;
33268;SDS011;19640;50.944;5.260;2023-02-18T15:40:48;6.10;;;4.15;;
33268;SDS011;19640;50.944;5.260;2023-02-18T15:43:18;10.15;;;3.03;;
33268;SDS011;19640;50.944;5.260;2023-02-18T15:45:46;8.93;;;2.88;;
33268;SDS011;19640;50.944;5.260;2023-02-18T15:51:04;6.20;;;2.97;;
33268;SDS011;19640;50.944;5.260;2023-02-18T15:53:35;10.23;;;3.00;;
33268;SDS011;19640;50.944;5.260;2023-02-18T15:56:08;7.22;;;2.88;;
33268;SDS011;19640;50.944;5.260;2023-02-18T15:58:38;8.75;;;2.83;;
33268;SDS011;19640;50.944;5.260;2023-02-18T16:01:04;8.68;;;2.58;;
33268;SDS011;19640;50.944;5.260;2023-02-18T16:03:41;11.32;;;2.83;;
33268;SDS011;19640;50.944;5.260;2023-02-18T16:06:17;6.65;;;3.45;;
33268;SDS011;19640;50.944;5.260;2023-02-18T16:11:28;10.60;;;3.47;;
33268;SDS011;19640;50.944;5.260;2023-02-18T16:13:59;5.72;;;2.72;;
33268;SDS011;19640;50.944;5.260;2023-02-18T16:16:29;5.38;;;2.72;;
33268;SDS011;19640;50.944;5.260;2023-02-18T16:18:57;7.68;;;3.30;;
33268;SDS011;19640;50.944;5.260;2023-02-18T16:21:27;6.22;;;2.38;;
33268;SDS011;19640;50.944;5.260;2023-02-18T16:24:02;4.82;;;2.47;;
33268;SDS011;19640;50.944;5.260;2023-02-18T16:26:45;10.38;;;2.83;;
33268;SDS011;19640;50.944;5.260;2023-02-18T16:29:15;5.97;;;2.45;;
33268;SDS011;19640;50.944;5.260;2023-02-18T16:32:00;4.90;;;2.42;;
33268;SDS011;19640;50.944;5.260;2023-02-18T16:34:26;6.55;;;2.35;;
33268;SDS011;19640;50.944;5.260;2023-02-18T16:36:52;4.53;;;2.10;;
33268;SDS011;19640;50.944;5.260;2023-02-18T16:39:37;7.88;;;2.95;;
33268;SDS011;19640;50.944;5.260;2023-02-18T16:42:10;7.88;;;3.05;;
33268;SDS011;19640;50.944;5.260;2023-02-18T16:44:37;4.22;;;2.40;;
33268;SDS011;19640;50.944;5.260;2023-02-18T16:47:03;4.07;;;2.83;;
33268;SDS011;19640;50.944;5.260;2023-02-18T16:49:30;8.35;;;2.72;;
33268;SDS011;19640;50.944;5.260;2023-02-18T16:51:56;9.02;;;2.15;;
33268;SDS011;19640;50.944;5.260;2023-02-18T16:54:23;5.43;;;2.53;;
33268;SDS011;19640;50.944;5.260;2023-02-18T16:56:52;6.25;;;2.35;;
33268;SDS011;19640;50.944;5.260;2023-02-18T16:59:18;5.55;;;2.63;;
33268;SDS011;19640;50.944;5.260;2023-02-18T17:01:44;6.75;;;3.13;;
33268;SDS011;19640;50.944;5.260;2023-02-18T17:04:11;7.00;;;2.55;;
33268;SDS011;19640;50.944;5.260;2023-02-18T17:06:38;6.47;;;2.83;;
33268;SDS011;19640;50.944;5.260;2023-02-18T17:09:14;5.00;;;2.97;;
33268;SDS011;19640;50.944;5.260;2023-02-18T17:11:42;12.25;;;2.80;;
33268;SDS011;19640;50.944;5.260;2023-02-18T17:14:12;4.43;;;2.42;;
33268;SDS011;19640;50.944;5.260;2023-02-18T17:16:39;6.10;;;2.60;;
33268;SDS011;19640;50.944;5.260;2023-02-18T17:19:05;4.40;;;2.35;;
33268;SDS011;19640;50.944;5.260;2023-02-18T17:21:30;6.50;;;2.50;;
33268;SDS011;19640;50.944;5.260;2023-02-18T17:23:56;12.85;;;3.28;;
33268;SDS011;19640;50.944;5.260;2023-02-18T17:26:23;4.05;;;2.45;;
33268;SDS011;19640;50.944;5.260;2023-02-18T17:28:51;11.52;;;2.80;;
33268;SDS011;19640;50.944;5.260;2023-02-18T17:31:30;5.40;;;3.10;;
33268;SDS011;19640;50.944;5.260;2023-02-18T17:36:28;6.95;;;2.70;;
33268;SDS011;19640;50.944;5.260;2023-02-18T17:38:53;6.60;;;2.63;;
33268;SDS011;19640;50.944;5.260;2023-02-18T17:41:19;7.20;;;3.10;;
33268;SDS011;19640;50.944;5.260;2023-02-18T17:43:45;6.80;;;3.15;;
33268;SDS011;19640;50.944;5.260;2023-02-18T17:46:11;4.43;;;3.30;;
33268;SDS011;19640;50.944;5.260;2023-02-18T17:48:38;7.22;;;4.10;;
33268;SDS011;19640;50.944;5.260;2023-02-18T17:51:04;9.88;;;4.70;;
33268;SDS011;19640;50.944;5.260;2023-02-18T17:53:31;9.63;;;4.45;;
33268;SDS011;19640;50.944;5.260;2023-02-18T17:56:00;7.90;;;4.70;;
33268;SDS011;19640;50.944;5.260;2023-02-18T17:58:26;8.35;;;4.25;;
33268;SDS011;19640;50.944;5.260;2023-02-18T18:00:53;6.22;;;4.70;;
33268;SDS011;19640;50.944;5.260;2023-02-18T18:03:20;12.18;;;6.38;;
33268;SDS011;19640;50.944;5.260;2023-02-18T18:05:47;7.53;;;5.38;;
33268;SDS011;19640;50.944;5.260;2023-02-18T18:08:16;8.70;;;4.72;;
33268;SDS011;19640;50.944;5.260;2023-02-18T18:10:51;9.35;;;5.40;;
33268;SDS011;19640;50.944;5.260;2023-02-18T18:13:24;6.93;;;5.38;;